CYBW/YBW METAR and TAF weather

Enter ICAO airport designator
Station Type Date Time Source
CYBW METAR 2020/04/08 22:00 UTC NOAA

CYBW 082200Z AUTO 17009KT 9SM CLR 02/M09 A3018 RMK SLP273


Station Type Date Time Source
CYBW Decoded METAR 2020/04/08 22:00 UTC NOAA

Calgary / Springbank, Canada (CYBW) 51-06N 114-22W
Apr 08, 2020 - 06:00 PM EDT / 2020.04.08 2200 UTC
Wind: from the S (170 degrees) at 10 MPH (9 KT):0
Visibility: 9 mile(s):0
Sky conditions: clear
Temperature: 35 F (2 C)
Windchill: 26 F (-3 C):1
Dew Point: 15 F (-9 C)
Relative Humidity: 43%
Pressure (altimeter): 30.18 in. Hg (1022 hPa)
ob: CYBW 082200Z AUTO 17009KT 9SM CLR 02/M09 A3018 RMK SLP273
cycle: 22

Station Type Date Time Source
CYBW TAF 2020/04/08 18:00 UTC NOAA

TAF CYBW 081739Z 0818/0904 VRB03KT P6SM SKC
BECMG 0819/0821 09008KT SCT120 BKN200
FM090300 12008KT P6SM SCT200
RMK FCST BASED ON AUTO OBS. NXT FCST BY 090000Z

Example: see airport list